sensor_id;sensor_type;location;lat;lon;timestamp;temperature;humidity
9800;DHT22;4939;52.00085300;4.17406100;2023-05-20T00:00:50;13.10;99.90
9800;DHT22;4939;52.00085300;4.17406100;2023-05-20T00:03:18;13.10;99.90
9800;DHT22;4939;52.00085300;4.17406100;2023-05-20T00:05:45;13.10;99.90
9800;DHT22;4939;52.00085300;4.17406100;2023-05-20T00:08:10;13.10;99.90
9800;DHT22;4939;52.00085300;4.17406100;2023-05-20T00:10:36;13.00;99.90
9800;DHT22;4939;52.00085300;4.17406100;2023-05-20T00:13:02;13.00;99.90
9800;DHT22;4939;52.00085300;4.17406100;2023-05-20T00:15:28;13.00;99.90
9800;DHT22;4939;52.00085300;4.17406100;2023-05-20T00:17:55;13.00;99.90
9800;DHT22;4939;52.00085300;4.17406100;2023-05-20T00:20:20;12.90;99.90
9800;DHT22;4939;52.00085300;4.17406100;2023-05-20T00:22:46;12.90;99.90
9800;DHT22;4939;52.00085300;4.17406100;2023-05-20T00:25:12;13.40;99.90
9800;DHT22;4939;52.00085300;4.17406100;2023-05-20T00:27:40;12.90;99.90
9800;DHT22;4939;52.00085300;4.17406100;2023-05-20T00:30:06;12.90;99.90
9800;DHT22;4939;52.00085300;4.17406100;2023-05-20T00:32:32;12.90;99.90
9800;DHT22;4939;52.00085300;4.17406100;2023-05-20T00:34:58;12.90;99.90
9800;DHT22;4939;52.00085300;4.17406100;2023-05-20T00:37:24;12.80;99.90
9800;DHT22;4939;52.00085300;4.17406100;2023-05-20T00:39:50;12.80;99.90
9800;DHT22;4939;52.00085300;4.17406100;2023-05-20T00:42:25;12.80;99.90
9800;DHT22;4939;52.00085300;4.17406100;2023-05-20T00:44:51;12.80;99.90
9800;DHT22;4939;52.00085300;4.17406100;2023-05-20T00:47:19;12.80;99.90
9800;DHT22;4939;52.00085300;4.17406100;2023-05-20T00:49:49;12.80;99.90
9800;DHT22;4939;52.00085300;4.17406100;2023-05-20T00:52:17;12.80;99.90
9800;DHT22;4939;52.00085300;4.17406100;2023-05-20T00:54:43;12.80;99.90
9800;DHT22;4939;52.00085300;4.17406100;2023-05-20T00:57:10;12.80;99.90
9800;DHT22;4939;52.00085300;4.17406100;2023-05-20T00:59:36;12.70;99.90
9800;DHT22;4939;52.00085300;4.17406100;2023-05-20T01:02:03;12.70;99.90
9800;DHT22;4939;52.00085300;4.17406100;2023-05-20T01:04:31;12.70;99.90
9800;DHT22;4939;52.00085300;4.17406100;2023-05-20T01:06:58;12.70;99.90
9800;DHT22;4939;52.00085300;4.17406100;2023-05-20T01:09:25;12.60;99.90
9800;DHT22;4939;52.00085300;4.17406100;2023-05-20T01:15:09;12.60;99.90
9800;DHT22;4939;52.00085300;4.17406100;2023-05-20T01:17:51;12.60;99.90
9800;DHT22;4939;52.00085300;4.17406100;2023-05-20T01:20:17;12.60;99.90
9800;DHT22;4939;52.00085300;4.17406100;2023-05-20T01:22:51;12.50;99.90
9800;DHT22;4939;52.00085300;4.17406100;2023-05-20T01:25:17;12.50;99.90
9800;DHT22;4939;52.00085300;4.17406100;2023-05-20T01:27:43;12.50;99.90
9800;DHT22;4939;52.00085300;4.17406100;2023-05-20T01:30:10;12.50;99.90
9800;DHT22;4939;52.00085300;4.17406100;2023-05-20T01:32:42;12.50;99.90
9800;DHT22;4939;52.00085300;4.17406100;2023-05-20T01:35:13;12.50;99.90
9800;DHT22;4939;52.00085300;4.17406100;2023-05-20T01:37:39;12.40;99.90
9800;DHT22;4939;52.00085300;4.17406100;2023-05-20T01:40:11;12.50;99.90
9800;DHT22;4939;52.00085300;4.17406100;2023-05-20T01:42:38;12.40;99.90
9800;DHT22;4939;52.00085300;4.17406100;2023-05-20T01:47:30;12.40;99.90
9800;DHT22;4939;52.00085300;4.17406100;2023-05-20T01:49:56;12.40;99.90
9800;DHT22;4939;52.00085300;4.17406100;2023-05-20T01:52:22;12.30;99.90
9800;DHT22;4939;52.00085300;4.17406100;2023-05-20T01:54:48;12.30;99.90
9800;DHT22;4939;52.00085300;4.17406100;2023-05-20T01:57:20;12.30;99.90
9800;DHT22;4939;52.00085300;4.17406100;2023-05-20T01:59:46;12.30;99.90
9800;DHT22;4939;52.00085300;4.17406100;2023-05-20T02:02:12;12.30;99.90
9800;DHT22;4939;52.00085300;4.17406100;2023-05-20T02:04:38;12.30;99.90
9800;DHT22;4939;52.00085300;4.17406100;2023-05-20T02:14:22;12.20;99.90
9800;DHT22;4939;52.00085300;4.17406100;2023-05-20T02:16:54;12.20;99.90
9800;DHT22;4939;52.00085300;4.17406100;2023-05-20T02:19:19;12.20;99.90
9800;DHT22;4939;52.00085300;4.17406100;2023-05-20T02:21:48;12.20;99.90
9800;DHT22;4939;52.00085300;4.17406100;2023-05-20T02:24:14;12.10;99.90
9800;DHT22;4939;52.00085300;4.17406100;2023-05-20T02:26:40;12.10;99.90
9800;DHT22;4939;52.00085300;4.17406100;2023-05-20T02:29:06;12.10;99.90
9800;DHT22;4939;52.00085300;4.17406100;2023-05-20T02:31:32;12.10;99.90
9800;DHT22;4939;52.00085300;4.17406100;2023-05-20T02:33:58;12.20;99.90
9800;DHT22;4939;52.00085300;4.17406100;2023-05-20T02:36:23;12.10;99.90
9800;DHT22;4939;52.00085300;4.17406100;2023-05-20T02:38:50;12.20;99.90
9800;DHT22;4939;52.00085300;4.17406100;2023-05-20T02:41:15;12.20;99.90
9800;DHT22;4939;52.00085300;4.17406100;2023-05-20T02:43:41;12.10;99.90
9800;DHT22;4939;52.00085300;4.17406100;2023-05-20T02:46:08;12.10;99.90
9800;DHT22;4939;52.00085300;4.17406100;2023-05-20T02:48:34;12.20;99.90
9800;DHT22;4939;52.00085300;4.17406100;2023-05-20T02:51:00;12.20;99.90
9800;DHT22;4939;52.00085300;4.17406100;2023-05-20T02:53:25;12.20;99.90
9800;DHT22;4939;52.00085300;4.17406100;2023-05-20T02:55:51;12.10;99.90
9800;DHT22;4939;52.00085300;4.17406100;2023-05-20T02:58:17;12.10;99.90
9800;DHT22;4939;52.00085300;4.17406100;2023-05-20T03:03:09;12.00;99.90
9800;DHT22;4939;52.00085300;4.17406100;2023-05-20T03:05:38;12.00;99.90
9800;DHT22;4939;52.00085300;4.17406100;2023-05-20T03:08:07;12.00;99.90
9800;DHT22;4939;52.00085300;4.17406100;2023-05-20T03:10:37;12.00;99.90
9800;DHT22;4939;52.00085300;4.17406100;2023-05-20T03:13:04;12.00;99.90
9800;DHT22;4939;52.00085300;4.17406100;2023-05-20T03:15:36;11.90;99.90
9800;DHT22;4939;52.00085300;4.17406100;2023-05-20T03:20:27;11.90;99.90
9800;DHT22;4939;52.00085300;4.17406100;2023-05-20T03:22:54;11.80;99.90
9800;DHT22;4939;52.00085300;4.17406100;2023-05-20T03:25:21;11.80;99.90
9800;DHT22;4939;52.00085300;4.17406100;2023-05-20T03:30:13;11.80;99.90
9800;DHT22;4939;52.00085300;4.17406100;2023-05-20T03:35:05;11.90;99.90
9800;DHT22;4939;52.00085300;4.17406100;2023-05-20T03:37:31;11.90;99.90
9800;DHT22;4939;52.00085300;4.17406100;2023-05-20T03:39:57;12.00;99.90
9800;DHT22;4939;52.00085300;4.17406100;2023-05-20T03:49:41;12.20;99.90
9800;DHT22;4939;52.00085300;4.17406100;2023-05-20T03:52:07;12.20;99.90
9800;DHT22;4939;52.00085300;4.17406100;2023-05-20T03:54:32;12.30;99.90
9800;DHT22;4939;52.00085300;4.17406100;2023-05-20T03:56:59;12.30;99.90
9800;DHT22;4939;52.00085300;4.17406100;2023-05-20T03:59:27;12.30;99.90
9800;DHT22;4939;52.00085300;4.17406100;2023-05-20T04:01:53;12.40;99.90
9800;DHT22;4939;52.00085300;4.17406100;2023-05-20T04:04:19;12.40;99.90
9800;DHT22;4939;52.00085300;4.17406100;2023-05-20T04:06:44;12.40;99.90
9800;DHT22;4939;52.00085300;4.17406100;2023-05-20T04:09:10;12.40;99.90
9800;DHT22;4939;52.00085300;4.17406100;2023-05-20T04:14:02;12.50;99.90
9800;DHT22;4939;52.00085300;4.17406100;2023-05-20T04:16:28;12.50;99.90
9800;DHT22;4939;52.00085300;4.17406100;2023-05-20T04:18:54;12.40;99.90
9800;DHT22;4939;52.00085300;4.17406100;2023-05-20T04:21:20;12.50;99.90
9800;DHT22;4939;52.00085300;4.17406100;2023-05-20T04:23:46;12.50;99.90
9800;DHT22;4939;52.00085300;4.17406100;2023-05-20T04:26:12;12.50;99.90
9800;DHT22;4939;52.00085300;4.17406100;2023-05-20T04:31:06;12.40;99.90
9800;DHT22;4939;52.00085300;4.17406100;2023-05-20T04:33:32;12.40;99.90
9800;DHT22;4939;52.00085300;4.17406100;2023-05-20T04:36:02;12.40;99.90
9800;DHT22;4939;52.00085300;4.17406100;2023-05-20T04:38:30;12.40;99.90
9800;DHT22;4939;52.00085300;4.17406100;2023-05-20T04:43:26;12.30;99.90
9800;DHT22;4939;52.00085300;4.17406100;2023-05-20T04:45:54;12.30;99.90
9800;DHT22;4939;52.00085300;4.17406100;2023-05-20T04:48:20;12.30;99.90
9800;DHT22;4939;52.00085300;4.17406100;2023-05-20T04:50:47;12.30;99.90
9800;DHT22;4939;52.00085300;4.17406100;2023-05-20T04:53:14;12.30;99.90
9800;DHT22;4939;52.00085300;4.17406100;2023-05-20T04:55:40;12.40;99.90
9800;DHT22;4939;52.00085300;4.17406100;2023-05-20T04:58:08;12.40;99.90
9800;DHT22;4939;52.00085300;4.17406100;2023-05-20T05:00:41;12.40;99.90
9800;DHT22;4939;52.00085300;4.17406100;2023-05-20T05:03:07;12.50;99.90
9800;DHT22;4939;52.00085300;4.17406100;2023-05-20T05:05:34;12.50;99.90
9800;DHT22;4939;52.00085300;4.17406100;2023-05-20T05:08:02;12.50;99.90
9800;DHT22;4939;52.00085300;4.17406100;2023-05-20T05:10:28;12.60;99.90
9800;DHT22;4939;52.00085300;4.17406100;2023-05-20T05:12:53;12.60;99.90
9800;DHT22;4939;52.00085300;4.17406100;2023-05-20T05:15:19;12.60;99.90
9800;DHT22;4939;52.00085300;4.17406100;2023-05-20T05:17:44;12.70;99.90
9800;DHT22;4939;52.00085300;4.17406100;2023-05-20T05:25:05;12.80;99.90
9800;DHT22;4939;52.00085300;4.17406100;2023-05-20T05:27:31;12.90;99.90
9800;DHT22;4939;52.00085300;4.17406100;2023-05-20T05:29:57;12.90;99.90
9800;DHT22;4939;52.00085300;4.17406100;2023-05-20T05:32:22;13.00;99.90
9800;DHT22;4939;52.00085300;4.17406100;2023-05-20T05:34:48;13.00;99.90
9800;DHT22;4939;52.00085300;4.17406100;2023-05-20T05:37:13;13.20;99.90
9800;DHT22;4939;52.00085300;4.17406100;2023-05-20T05:39:39;13.30;99.90
9800;DHT22;4939;52.00085300;4.17406100;2023-05-20T05:44:31;13.60;99.90
9800;DHT22;4939;52.00085300;4.17406100;2023-05-20T05:46:56;13.70;99.90
9800;DHT22;4939;52.00085300;4.17406100;2023-05-20T05:51:49;13.90;99.90
9800;DHT22;4939;52.00085300;4.17406100;2023-05-20T05:56:41;13.90;99.90
9800;DHT22;4939;52.00085300;4.17406100;2023-05-20T05:59:07;13.90;99.90
9800;DHT22;4939;52.00085300;4.17406100;2023-05-20T06:01:32;13.90;99.90
9800;DHT22;4939;52.00085300;4.17406100;2023-05-20T06:03:58;13.80;99.90
9800;DHT22;4939;52.00085300;4.17406100;2023-05-20T06:06:24;13.90;99.90
9800;DHT22;4939;52.00085300;4.17406100;2023-05-20T06:08:49;13.90;99.90
9800;DHT22;4939;52.00085300;4.17406100;2023-05-20T06:11:15;13.90;99.90
9800;DHT22;4939;52.00085300;4.17406100;2023-05-20T06:13:41;13.90;99.90
9800;DHT22;4939;52.00085300;4.17406100;2023-05-20T06:16:06;14.10;99.90
9800;DHT22;4939;52.00085300;4.17406100;2023-05-20T06:18:32;14.10;99.90
9800;DHT22;4939;52.00085300;4.17406100;2023-05-20T06:20:58;14.20;99.90
9800;DHT22;4939;52.00085300;4.17406100;2023-05-20T06:23:24;14.30;99.90
9800;DHT22;4939;52.00085300;4.17406100;2023-05-20T06:25:51;14.30;99.90
9800;DHT22;4939;52.00085300;4.17406100;2023-05-20T06:28:16;14.30;99.90
9800;DHT22;4939;52.00085300;4.17406100;2023-05-20T06:35:35;14.80;99.90
9800;DHT22;4939;52.00085300;4.17406100;2023-05-20T06:38:01;14.90;99.90
9800;DHT22;4939;52.00085300;4.17406100;2023-05-20T06:40:27;15.00;99.90
9800;DHT22;4939;52.00085300;4.17406100;2023-05-20T06:42:53;15.00;99.90
9800;DHT22;4939;52.00085300;4.17406100;2023-05-20T06:45:19;15.10;99.90
9800;DHT22;4939;52.00085300;4.17406100;2023-05-20T06:47:44;15.10;99.90
9800;DHT22;4939;52.00085300;4.17406100;2023-05-20T06:52:38;15.20;99.90
9800;DHT22;4939;52.00085300;4.17406100;2023-05-20T06:55:04;15.30;99.90
9800;DHT22;4939;52.00085300;4.17406100;2023-05-20T06:57:30;15.40;99.90
9800;DHT22;4939;52.00085300;4.17406100;2023-05-20T06:59:55;15.60;99.90
9800;DHT22;4939;52.00085300;4.17406100;2023-05-20T07:02:21;15.50;99.90
9800;DHT22;4939;52.00085300;4.17406100;2023-05-20T07:04:48;15.50;99.90
9800;DHT22;4939;52.00085300;4.17406100;2023-05-20T07:09:41;15.50;99.90
9800;DHT22;4939;52.00085300;4.17406100;2023-05-20T07:12:07;15.60;99.90
9800;DHT22;4939;52.00085300;4.17406100;2023-05-20T07:14:33;15.70;99.90
9800;DHT22;4939;52.00085300;4.17406100;2023-05-20T07:16:58;15.80;99.90
9800;DHT22;4939;52.00085300;4.17406100;2023-05-20T07:19:24;15.90;99.90
9800;DHT22;4939;52.00085300;4.17406100;2023-05-20T07:21:50;16.00;99.90
9800;DHT22;4939;52.00085300;4.17406100;2023-05-20T07:26:42;16.10;99.90
9800;DHT22;4939;52.00085300;4.17406100;2023-05-20T07:29:08;16.30;99.90
9800;DHT22;4939;52.00085300;4.17406100;2023-05-20T07:34:00;16.40;99.90
9800;DHT22;4939;52.00085300;4.17406100;2023-05-20T07:36:27;16.50;99.90
9800;DHT22;4939;52.00085300;4.17406100;2023-05-20T07:38:53;16.60;99.90
9800;DHT22;4939;52.00085300;4.17406100;2023-05-20T07:41:18;16.70;99.90
9800;DHT22;4939;52.00085300;4.17406100;2023-05-20T07:43:44;16.90;99.90
9800;DHT22;4939;52.00085300;4.17406100;2023-05-20T07:46:10;16.90;99.90
9800;DHT22;4939;52.00085300;4.17406100;2023-05-20T07:48:36;16.90;99.90
9800;DHT22;4939;52.00085300;4.17406100;2023-05-20T07:53:27;17.30;99.90
9800;DHT22;4939;52.00085300;4.17406100;2023-05-20T07:55:53;17.40;99.90
9800;DHT22;4939;52.00085300;4.17406100;2023-05-20T07:58:18;17.40;99.90
9800;DHT22;4939;52.00085300;4.17406100;2023-05-20T08:00:44;17.60;99.90
9800;DHT22;4939;52.00085300;4.17406100;2023-05-20T08:05:37;17.90;99.90
9800;DHT22;4939;52.00085300;4.17406100;2023-05-20T08:08:03;17.90;99.90
9800;DHT22;4939;52.00085300;4.17406100;2023-05-20T08:10:29;17.90;99.90
9800;DHT22;4939;52.00085300;4.17406100;2023-05-20T08:12:55;18.00;99.90
9800;DHT22;4939;52.00085300;4.17406100;2023-05-20T08:15:21;18.20;99.90
9800;DHT22;4939;52.00085300;4.17406100;2023-05-20T08:17:46;18.40;99.90
9800;DHT22;4939;52.00085300;4.17406100;2023-05-20T08:20:12;18.50;99.90
9800;DHT22;4939;52.00085300;4.17406100;2023-05-20T08:22:39;18.50;99.90
9800;DHT22;4939;52.00085300;4.17406100;2023-05-20T08:25:07;18.40;99.90
9800;DHT22;4939;52.00085300;4.17406100;2023-05-20T08:27:33;18.50;99.90
9800;DHT22;4939;52.00085300;4.17406100;2023-05-20T08:32:25;18.80;99.90
9800;DHT22;4939;52.00085300;4.17406100;2023-05-20T08:34:51;18.80;99.90
9800;DHT22;4939;52.00085300;4.17406100;2023-05-20T08:37:16;18.80;99.90
9800;DHT22;4939;52.00085300;4.17406100;2023-05-20T08:39:42;18.70;99.90
9800;DHT22;4939;52.00085300;4.17406100;2023-05-20T08:42:10;18.90;99.90
9800;DHT22;4939;52.00085300;4.17406100;2023-05-20T08:44:39;19.10;99.90
9800;DHT22;4939;52.00085300;4.17406100;2023-05-20T08:47:07;19.20;99.90
9800;DHT22;4939;52.00085300;4.17406100;2023-05-20T08:49:33;19.00;99.90
9800;DHT22;4939;52.00085300;4.17406100;2023-05-20T08:51:59;19.10;99.90
9800;DHT22;4939;52.00085300;4.17406100;2023-05-20T08:54:32;19.10;99.90
9800;DHT22;4939;52.00085300;4.17406100;2023-05-20T08:57:03;19.20;99.90
9800;DHT22;4939;52.00085300;4.17406100;2023-05-20T08:59:29;19.40;99.90
9800;DHT22;4939;52.00085300;4.17406100;2023-05-20T09:01:55;19.50;99.90
9800;DHT22;4939;52.00085300;4.17406100;2023-05-20T09:04:21;19.70;99.90
9800;DHT22;4939;52.00085300;4.17406100;2023-05-20T09:06:46;19.70;99.90
9800;DHT22;4939;52.00085300;4.17406100;2023-05-20T09:09:13;19.80;99.90
9800;DHT22;4939;52.00085300;4.17406100;2023-05-20T09:11:42;19.80;99.90
9800;DHT22;4939;52.00085300;4.17406100;2023-05-20T09:14:08;19.90;99.90
9800;DHT22;4939;52.00085300;4.17406100;2023-05-20T09:19:00;20.30;99.90
9800;DHT22;4939;52.00085300;4.17406100;2023-05-20T09:21:29;20.20;99.90
9800;DHT22;4939;52.00085300;4.17406100;2023-05-20T09:23:55;20.30;99.90
9800;DHT22;4939;52.00085300;4.17406100;2023-05-20T09:26:27;20.30;99.90
9800;DHT22;4939;52.00085300;4.17406100;2023-05-20T09:28:57;20.20;99.90
9800;DHT22;4939;52.00085300;4.17406100;2023-05-20T09:31:41;20.30;99.90
9800;DHT22;4939;52.00085300;4.17406100;2023-05-20T09:34:08;20.40;99.90
9800;DHT22;4939;52.00085300;4.17406100;2023-05-20T09:36:34;20.30;99.90
9800;DHT22;4939;52.00085300;4.17406100;2023-05-20T09:39:02;20.30;99.90
9800;DHT22;4939;52.00085300;4.17406100;2023-05-20T09:41:36;20.30;99.90
9800;DHT22;4939;52.00085300;4.17406100;2023-05-20T09:44:02;20.40;99.90
9800;DHT22;4939;52.00085300;4.17406100;2023-05-20T09:46:29;20.50;99.90
9800;DHT22;4939;52.00085300;4.17406100;2023-05-20T09:48:55;20.50;99.90
9800;DHT22;4939;52.00085300;4.17406100;2023-05-20T09:51:22;20.70;99.90
9800;DHT22;4939;52.00085300;4.17406100;2023-05-20T09:53:48;21.10;99.90
9800;DHT22;4939;52.00085300;4.17406100;2023-05-20T09:56:15;21.10;99.90
9800;DHT22;4939;52.00085300;4.17406100;2023-05-20T09:58:43;21.20;99.90
9800;DHT22;4939;52.00085300;4.17406100;2023-05-20T10:01:09;21.10;99.90
9800;DHT22;4939;52.00085300;4.17406100;2023-05-20T10:03:35;21.10;99.90
9800;DHT22;4939;52.00085300;4.17406100;2023-05-20T10:09:35;20.40;26.30
9800;DHT22;4939;52.00085300;4.17406100;2023-05-20T10:20:14;20.90;27.60
9800;DHT22;4939;52.00085300;4.17406100;2023-05-20T10:22:40;20.60;99.90
9800;DHT22;4939;52.00085300;4.17406100;2023-05-20T10:25:11;20.60;1.00
9800;DHT22;4939;52.00085300;4.17406100;2023-05-20T10:27:44;20.70;99.90
9800;DHT22;4939;52.00085300;4.17406100;2023-05-20T10:30:21;20.60;1.00
9800;DHT22;4939;52.00085300;4.17406100;2023-05-20T10:32:57;20.80;1.00
9800;DHT22;4939;52.00085300;4.17406100;2023-05-20T10:35:25;20.60;99.90
9800;DHT22;4939;52.00085300;4.17406100;2023-05-20T10:37:52;20.60;1.00
9800;DHT22;4939;52.00085300;4.17406100;2023-05-20T10:40:20;20.50;1.00
9800;DHT22;4939;52.00085300;4.17406100;2023-05-20T10:45:27;20.60;99.90
9800;DHT22;4939;52.00085300;4.17406100;2023-05-20T10:47:57;20.60;99.90
9800;DHT22;4939;52.00085300;4.17406100;2023-05-20T10:50:33;20.90;99.90
9800;DHT22;4939;52.00085300;4.17406100;2023-05-20T10:53:04;21.50;99.90
9800;DHT22;4939;52.00085300;4.17406100;2023-05-20T10:55:37;21.20;99.90
9800;DHT22;4939;52.00085300;4.17406100;2023-05-20T10:58:04;20.80;99.90
9800;DHT22;4939;52.00085300;4.17406100;2023-05-20T11:00:33;20.70;99.90
9800;DHT22;4939;52.00085300;4.17406100;2023-05-20T11:03:00;20.90;99.90
9800;DHT22;4939;52.00085300;4.17406100;2023-05-20T11:05:26;21.50;99.90
9800;DHT22;4939;52.00085300;4.17406100;2023-05-20T11:08:00;21.90;99.90
9800;DHT22;4939;52.00085300;4.17406100;2023-05-20T11:10:26;22.30;99.90
9800;DHT22;4939;52.00085300;4.17406100;2023-05-20T11:12:52;22.40;99.90
9800;DHT22;4939;52.00085300;4.17406100;2023-05-20T11:15:18;21.70;99.90
9800;DHT22;4939;52.00085300;4.17406100;2023-05-20T11:17:53;21.50;99.90
9800;DHT22;4939;52.00085300;4.17406100;2023-05-20T11:22:45;21.30;99.90
9800;DHT22;4939;52.00085300;4.17406100;2023-05-20T11:25:11;21.30;99.90
9800;DHT22;4939;52.00085300;4.17406100;2023-05-20T11:27:40;21.00;99.90
9800;DHT22;4939;52.00085300;4.17406100;2023-05-20T11:30:06;20.90;99.90
9800;DHT22;4939;52.00085300;4.17406100;2023-05-20T11:32:32;21.40;99.90
9800;DHT22;4939;52.00085300;4.17406100;2023-05-20T11:34:57;21.30;99.90
9800;DHT22;4939;52.00085300;4.17406100;2023-05-20T11:37:23;21.50;99.90
9800;DHT22;4939;52.00085300;4.17406100;2023-05-20T11:40:05;21.70;99.90
9800;DHT22;4939;52.00085300;4.17406100;2023-05-20T11:42:35;22.00;99.90
9800;DHT22;4939;52.00085300;4.17406100;2023-05-20T11:45:01;22.30;99.90
9800;DHT22;4939;52.00085300;4.17406100;2023-05-20T11:47:27;21.80;99.90
9800;DHT22;4939;52.00085300;4.17406100;2023-05-20T11:49:55;21.60;99.90
9800;DHT22;4939;52.00085300;4.17406100;2023-05-20T11:52:21;21.60;99.90
9800;DHT22;4939;52.00085300;4.17406100;2023-05-20T11:54:53;21.80;99.90
9800;DHT22;4939;52.00085300;4.17406100;2023-05-20T11:57:18;22.00;99.90
9800;DHT22;4939;52.00085300;4.17406100;2023-05-20T11:59:45;21.90;99.90
9800;DHT22;4939;52.00085300;4.17406100;2023-05-20T12:02:11;21.60;99.90
9800;DHT22;4939;52.00085300;4.17406100;2023-05-20T12:04:37;21.70;99.90
9800;DHT22;4939;52.00085300;4.17406100;2023-05-20T12:07:02;21.70;99.90
9800;DHT22;4939;52.00085300;4.17406100;2023-05-20T12:09:28;21.70;99.90
9800;DHT22;4939;52.00085300;4.17406100;2023-05-20T12:11:54;21.60;99.90
9800;DHT22;4939;52.00085300;4.17406100;2023-05-20T12:14:21;21.80;99.90
9800;DHT22;4939;52.00085300;4.17406100;2023-05-20T12:16:46;21.70;99.90
9800;DHT22;4939;52.00085300;4.17406100;2023-05-20T12:19:12;22.10;99.90
9800;DHT22;4939;52.00085300;4.17406100;2023-05-20T12:21:37;22.30;99.90
9800;DHT22;4939;52.00085300;4.17406100;2023-05-20T12:24:03;22.30;99.90
9800;DHT22;4939;52.00085300;4.17406100;2023-05-20T12:26:31;22.60;99.90
9800;DHT22;4939;52.00085300;4.17406100;2023-05-20T12:28:57;22.20;99.90
9800;DHT22;4939;52.00085300;4.17406100;2023-05-20T12:31:24;22.50;99.90
9800;DHT22;4939;52.00085300;4.17406100;2023-05-20T12:33:50;22.40;99.90
9800;DHT22;4939;52.00085300;4.17406100;2023-05-20T12:36:15;22.10;99.90
9800;DHT22;4939;52.00085300;4.17406100;2023-05-20T12:38:41;21.60;99.90
9800;DHT22;4939;52.00085300;4.17406100;2023-05-20T12:41:07;21.40;99.90
9800;DHT22;4939;52.00085300;4.17406100;2023-05-20T12:43:34;21.90;99.90
9800;DHT22;4939;52.00085300;4.17406100;2023-05-20T12:46:00;21.80;99.90
9800;DHT22;4939;52.00085300;4.17406100;2023-05-20T12:48:25;21.70;99.90
9800;DHT22;4939;52.00085300;4.17406100;2023-05-20T12:50:51;21.60;99.90
9800;DHT22;4939;52.00085300;4.17406100;2023-05-20T12:53:16;21.50;99.90
9800;DHT22;4939;52.00085300;4.17406100;2023-05-20T12:55:42;21.70;99.90
9800;DHT22;4939;52.00085300;4.17406100;2023-05-20T12:58:08;22.10;99.90
9800;DHT22;4939;52.00085300;4.17406100;2023-05-20T13:00:34;21.70;99.90
9800;DHT22;4939;52.00085300;4.17406100;2023-05-20T13:03:00;21.50;99.90
9800;DHT22;4939;52.00085300;4.17406100;2023-05-20T13:05:26;21.70;99.90
9800;DHT22;4939;52.00085300;4.17406100;2023-05-20T13:07:51;21.70;99.90
9800;DHT22;4939;52.00085300;4.17406100;2023-05-20T13:10:20;21.60;99.90
9800;DHT22;4939;52.00085300;4.17406100;2023-05-20T13:12:46;21.50;99.90
9800;DHT22;4939;52.00085300;4.17406100;2023-05-20T13:15:12;21.50;99.90
9800;DHT22;4939;52.00085300;4.17406100;2023-05-20T13:17:39;21.80;99.90
9800;DHT22;4939;52.00085300;4.17406100;2023-05-20T13:20:05;21.60;99.90
9800;DHT22;4939;52.00085300;4.17406100;2023-05-20T13:22:32;21.50;99.90
9800;DHT22;4939;52.00085300;4.17406100;2023-05-20T13:24:57;21.20;99.90
9800;DHT22;4939;52.00085300;4.17406100;2023-05-20T13:27:23;21.20;99.90
9800;DHT22;4939;52.00085300;4.17406100;2023-05-20T13:29:48;21.70;99.90
9800;DHT22;4939;52.00085300;4.17406100;2023-05-20T13:32:14;21.70;99.90
9800;DHT22;4939;52.00085300;4.17406100;2023-05-20T13:34:40;22.40;99.90
9800;DHT22;4939;52.00085300;4.17406100;2023-05-20T13:37:06;22.60;99.90
9800;DHT22;4939;52.00085300;4.17406100;2023-05-20T13:39:31;23.00;99.90
9800;DHT22;4939;52.00085300;4.17406100;2023-05-20T13:41:57;23.00;99.90
9800;DHT22;4939;52.00085300;4.17406100;2023-05-20T13:44:23;23.60;99.90
9800;DHT22;4939;52.00085300;4.17406100;2023-05-20T13:46:48;23.20;99.90
9800;DHT22;4939;52.00085300;4.17406100;2023-05-20T13:49:14;22.50;99.90
9800;DHT22;4939;52.00085300;4.17406100;2023-05-20T13:51:40;22.00;99.90
9800;DHT22;4939;52.00085300;4.17406100;2023-05-20T13:54:05;22.10;99.90
9800;DHT22;4939;52.00085300;4.17406100;2023-05-20T13:56:31;22.00;99.90
9800;DHT22;4939;52.00085300;4.17406100;2023-05-20T13:58:57;22.30;99.90
9800;DHT22;4939;52.00085300;4.17406100;2023-05-20T14:01:22;22.10;99.90
9800;DHT22;4939;52.00085300;4.17406100;2023-05-20T14:03:48;21.70;99.90
9800;DHT22;4939;52.00085300;4.17406100;2023-05-20T14:06:14;21.30;99.90
9800;DHT22;4939;52.00085300;4.17406100;2023-05-20T14:08:43;21.20;99.90
9800;DHT22;4939;52.00085300;4.17406100;2023-05-20T14:11:10;21.00;99.90
9800;DHT22;4939;52.00085300;4.17406100;2023-05-20T14:13:36;20.90;99.90
9800;DHT22;4939;52.00085300;4.17406100;2023-05-20T14:16:01;20.60;99.90
9800;DHT22;4939;52.00085300;4.17406100;2023-05-20T14:20:54;20.50;99.90
9800;DHT22;4939;52.00085300;4.17406100;2023-05-20T14:23:20;20.40;99.90
9800;DHT22;4939;52.00085300;4.17406100;2023-05-20T14:25:46;20.20;99.90
9800;DHT22;4939;52.00085300;4.17406100;2023-05-20T14:28:11;20.10;99.90
9800;DHT22;4939;52.00085300;4.17406100;2023-05-20T14:33:03;19.80;99.90
9800;DHT22;4939;52.00085300;4.17406100;2023-05-20T14:35:29;19.80;99.90
9800;DHT22;4939;52.00085300;4.17406100;2023-05-20T14:37:54;19.60;99.90
9800;DHT22;4939;52.00085300;4.17406100;2023-05-20T14:42:46;19.50;99.90
9800;DHT22;4939;52.00085300;4.17406100;2023-05-20T14:45:12;19.30;99.90
9800;DHT22;4939;52.00085300;4.17406100;2023-05-20T14:47:37;19.00;99.90
9800;DHT22;4939;52.00085300;4.17406100;2023-05-20T14:50:06;18.80;99.90
9800;DHT22;4939;52.00085300;4.17406100;2023-05-20T14:52:32;18.80;99.90
9800;DHT22;4939;52.00085300;4.17406100;2023-05-20T14:59:49;19.10;99.90
9800;DHT22;4939;52.00085300;4.17406100;2023-05-20T15:02:17;18.80;99.90
9800;DHT22;4939;52.00085300;4.17406100;2023-05-20T15:04:43;18.70;99.90
9800;DHT22;4939;52.00085300;4.17406100;2023-05-20T15:07:10;18.60;99.90
9800;DHT22;4939;52.00085300;4.17406100;2023-05-20T15:09:36;18.70;99.90
9800;DHT22;4939;52.00085300;4.17406100;2023-05-20T15:12:02;18.70;99.90
9800;DHT22;4939;52.00085300;4.17406100;2023-05-20T15:14:28;18.80;99.90
9800;DHT22;4939;52.00085300;4.17406100;2023-05-20T15:16:54;18.80;99.90
9800;DHT22;4939;52.00085300;4.17406100;2023-05-20T15:19:19;18.70;99.90
9800;DHT22;4939;52.00085300;4.17406100;2023-05-20T15:21:45;18.90;99.90
9800;DHT22;4939;52.00085300;4.17406100;2023-05-20T15:24:10;18.70;99.90
9800;DHT22;4939;52.00085300;4.17406100;2023-05-20T15:26:39;18.50;99.90